Flight Track Log - Related Links

Times and Time Zones

All times are in EDT time to prevent confusion due to time zone crossing. See the EJA941 flight status page for this flight to view local times or setup timezone preferences in your user account.

Time Position Orientation Groundspeed Altitude Reporting Facility
EDT Latitude Longitude Course Direction KTS MPH feet Rate Location/Type
Wed 12:08:39 PM 40.3203 -79.3658 296° West 234 269 4,400  Level Cleveland Center
Wed 12:09:39 PM 40.3478 -79.4383 296° West 284 327 7,500 1,846 Climbing Cleveland Center
Wed 12:10:36 PM 40.3028 -79.5225 235° Southwest 297 342 8,000 807 Climbing Cleveland Center
Wed 12:11:38 PM 40.2575 -79.6125 237° Southwest 296 341 9,100 1,500 Climbing Cleveland Center
Wed 12:12:40 PM 40.2006 -79.6950 228° Southwest 308 354 11,100 1,452 Climbing Cleveland Center
Wed 12:13:42 PM 40.1392 -79.7958 231° Southwest 355 409 12,100 1,210 Climbing Cleveland Center
Wed 12:14:44 PM 40.0728 -79.9056 232° Southwest 380 437 13,600 1,452 Climbing Cleveland Center
Wed 12:15:46 PM 40.0042 -80.0181 231° Southwest 393 452 15,100 1,403 Climbing Cleveland Center
Wed 12:16:48 PM 39.9353 -80.1325 232° Southwest 398 458 16,500 1,306 Climbing Cleveland Center
Wed 12:17:50 PM 39.8647 -80.2486 232° Southwest 406 467 17,800 1,258 Climbing Cleveland Center
Wed 12:18:52 PM 39.7778 -80.3911 232° Southwest 416 479 19,100 1,306 Climbing Cleveland Center
Wed 12:19:54 PM 39.7036 -80.5100 231° Southwest 422 486 20,500 1,403 Climbing Cleveland Center
Wed 12:20:56 PM 39.6297 -80.6319 232° Southwest 427 491 22,000 1,526 Climbing Cleveland Center
Wed 12:21:48 PM 39.5558 -80.7519 231° Southwest 433 498 23,400 1,526 Climbing Indianapolis Center
Wed 12:22:50 PM 39.4789 -80.8764 231° Southwest 441 507 24,900 1,403 Climbing Indianapolis Center
Wed 12:23:52 PM 39.4039 -81.0069 233° Southwest 450 518 26,300 1,355 Climbing Indianapolis Center
Wed 12:24:54 PM 39.3453 -81.1517 242° Southwest 453 521 27,700 1,220 Climbing Indianapolis Center
Wed 12:25:55 PM 39.2844 -81.2958 241° Southwest 458 527 28,800 1,171 Climbing Indianapolis Center
Wed 12:26:57 PM 39.2219 -81.4428 241° Southwest 465 535 30,100 1,597 Climbing Indianapolis Center
Wed 12:27:59 PM 39.1469 -81.6219 242° Southwest 474 545 32,100 1,790 Climbing Indianapolis Center
Wed 12:29:01 PM 39.0856 -81.7664 241° Southwest 467 537 33,800 1,610 Climbing Indianapolis Center
Wed 12:30:02 PM 39.0231 -81.9119 241° Southwest 468 539 35,400 1,561 Climbing Indianapolis Center
Wed 12:31:04 PM 38.9603 -82.0575 241° Southwest 470 541 37,000 1,548 Climbing Indianapolis Center
Wed 12:32:06 PM 38.8972 -82.2025 241° Southwest 469 540 38,600 1,452 Climbing Indianapolis Center
Wed 12:33:08 PM 38.8342 -82.3475 241° Southwest 468 539 40,000 677 Climbing Indianapolis Center
Wed 12:34:10 PM 38.7575 -82.5228 241° Southwest 471 542 40,000  Level Indianapolis Center
Wed 12:35:12 PM 38.6906 -82.6756 241° Southwest 487 560 40,000  Level Indianapolis Center
Wed 12:36:13 PM 38.6247 -82.8239 240° Southwest 494 568 40,000  Level Indianapolis Center
Wed 12:37:15 PM 38.5558 -82.9789 240° Southwest 501 577 40,000  Level Indianapolis Center
Wed 12:38:17 PM 38.4750 -83.1600 240° Southwest 503 579 40,000  Level Indianapolis Center
Wed 12:39:19 PM 38.4061 -83.3139 240° Southwest 501 577 40,000  Level Indianapolis Center
Wed 12:40:21 PM 38.3356 -83.4689 240° Southwest 505 581 40,000  Level Indianapolis Center
Wed 12:41:23 PM 38.2653 -83.6214 240° Southwest 502 578 40,000  Level Indianapolis Center
Wed 12:42:25 PM 38.1939 -83.7744 239° Southwest 502 578 40,000  Level Indianapolis Center
Wed 12:43:27 PM 38.1231 -83.9261 239° Southwest 502 578 40,000  Level Indianapolis Center
Wed 12:44:28 PM 38.0403 -84.1025 239° Southwest 499 574 40,000  Level Indianapolis Center
Wed 12:45:30 PM 37.9697 -84.2533 239° Southwest 499 574 40,000  Level Indianapolis Center
Wed 12:46:32 PM 37.8975 -84.4036 239° Southwest 499 574 40,000  Level Indianapolis Center
Wed 12:47:34 PM 37.8258 -84.5550 239° Southwest 501 577 40,000  Level Indianapolis Center
Wed 12:48:36 PM 37.7539 -84.7053 239° Southwest 501 577 40,000  Level Indianapolis Center
Wed 12:49:38 PM 37.6694 -84.8806 239° Southwest 500 575 40,000  Level Indianapolis Center
Wed 12:50:40 PM 37.5975 -85.0314 239° Southwest 501 577 40,000  Level Indianapolis Center
Wed 12:51:42 PM 37.5233 -85.1811 238° Southwest 504 580 40,000  Level Indianapolis Center
Wed 12:52:43 PM 37.4508 -85.3294 238° Southwest 499 574 40,000  Level Indianapolis Center
Wed 12:53:45 PM 37.3783 -85.4778 238° Southwest 496 571 40,000  Level Indianapolis Center
Wed 12:54:47 PM 37.3067 -85.6250 239° Southwest 501 577 40,000  Level Indianapolis Center
Wed 12:55:49 PM 37.2289 -85.7822 238° Southwest 498 573 40,000  Level Indianapolis Center
Wed 12:56:51 PM 37.1550 -85.9314 238° Southwest 499 574 40,000  Level Indianapolis Center
Wed 12:57:53 PM 37.0689 -86.1036 238° Southwest 498 573 40,000  Level Indianapolis Center
Wed 12:58:55 PM 36.9939 -86.2517 238° Southwest 500 575 40,000  Level Indianapolis Center
Wed 12:59:57 PM 36.9203 -86.3986 238° Southwest 496 571 40,000  Level Indianapolis Center
Wed 01:00:41 PM 36.8717 -86.4981 239° Southwest 512 589 40,000  Level Memphis Center
Wed 01:01:41 PM 36.7969 -86.6442 237° Southwest 512 589 40,000  Level Memphis Center
Wed 01:02:41 PM 36.7242 -86.7897 238° Southwest 506 582 40,000  Level Memphis Center
Wed 01:03:41 PM 36.6492 -86.9381 238° Southwest 506 582 40,000  Level Memphis Center
Wed 01:04:41 PM 36.5761 -87.0831 238° Southwest 506 582 40,000  Level Memphis Center
Wed 01:05:41 PM 36.5006 -87.2308 238° Southwest 511 588 40,000  Level Memphis Center
Wed 01:06:41 PM 36.4250 -87.3731 237° Southwest 511 588 40,000  Level Memphis Center
Wed 01:07:41 PM 36.3469 -87.5200 237° Southwest 511 588 40,000  Level Memphis Center
Wed 01:08:41 PM 36.2731 -87.6642 238° Southwest 511 588 40,000  Level Memphis Center
Wed 01:09:41 PM 36.1869 -87.8239 236° Southwest 511 588 40,000  Level Memphis Center
Wed 01:10:41 PM 36.0956 -87.9500 228° Southwest 511 588 40,000  Level Memphis Center
Wed 01:11:41 PM 35.9958 -88.0736 225° Southwest 504 580 40,000  Level Memphis Center
Wed 01:12:41 PM 35.8936 -88.1867 222° Southwest 504 580 40,000  Level Memphis Center
Wed 01:13:41 PM 35.7933 -88.3097 225° Southwest 499 574 40,000  Level Memphis Center
Wed 01:14:41 PM 35.6953 -88.4297 225° Southwest 499 574 40,000  Level Memphis Center
Wed 01:15:41 PM 35.5950 -88.5519 225° Southwest 499 574 40,000  Level Memphis Center
Wed 01:16:41 PM 35.4964 -88.6714 225° Southwest 499 574 40,000  Level Memphis Center
Wed 01:17:41 PM 35.4083 -88.7803 225° Southwest 499 574 40,000  Level Memphis Center
Wed 01:18:41 PM 35.3094 -88.8992 224° Southwest 499 574 40,000  Level Memphis Center
Wed 01:19:41 PM 35.2086 -89.0203 224° Southwest 499 574 40,000  Level Memphis Center
Wed 01:20:41 PM 35.0994 -89.1489 224° Southwest 499 574 40,000  Level Memphis Center
Wed 01:21:41 PM 34.9964 -89.2697 224° Southwest 504 580 40,000  Level Memphis Center
Wed 01:22:41 PM 34.8950 -89.3875 224° Southwest 499 574 40,000  Level Memphis Center
Wed 01:23:41 PM 34.7917 -89.5050 223° Southwest 499 574 40,000  Level Memphis Center
Wed 01:24:41 PM 34.6881 -89.6247 224° Southwest 511 588 40,000  Level Memphis Center
Wed 01:25:41 PM 34.5969 -89.7364 225° Southwest 516 594 40,000  Level Memphis Center
Wed 01:26:41 PM 34.4953 -89.8581 225° Southwest 516 594 40,000  Level Memphis Center
Wed 01:27:41 PM 34.3953 -89.9769 224° Southwest 516 594 40,000  Level Memphis Center
Wed 01:28:41 PM 34.2933 -90.0931 223° Southwest 508 585 40,000  Level Memphis Center
Wed 01:29:41 PM 34.1831 -90.2242 225° Southwest 508 585 40,000  Level Memphis Center
Wed 01:30:41 PM 34.0831 -90.3397 224° Southwest 508 585 40,000  Level Memphis Center
Wed 01:31:41 PM 33.9806 -90.4575 224° Southwest 503 579 40,000  Level Memphis Center
Wed 01:32:41 PM 33.8825 -90.5722 224° Southwest 498 573 40,000  Level Memphis Center
Wed 01:33:41 PM 33.7800 -90.6847 222° Southwest 504 580 40,000  Level Memphis Center
Wed 01:34:41 PM 33.6772 -90.8014 223° Southwest 504 580 40,000  Level Memphis Center
Wed 01:35:41 PM 33.5767 -90.9158 223° Southwest 504 580 40,000  Level Memphis Center
Wed 01:36:41 PM 33.4739 -91.0322 223° Southwest 504 580 40,000  Level Memphis Center
Wed 01:37:41 PM 33.3708 -91.1458 223° Southwest 504 580 40,000  Level Memphis Center
Wed 01:39:32 PM 33.1822 -91.3578 223° Southwest 479 551 40,000  Level Fort Worth Center
Wed 01:40:32 PM 33.0811 -91.4686 223° Southwest 490 564 40,000  Level Fort Worth Center
Wed 01:41:32 PM 32.9800 -91.5819 223° Southwest 496 571 40,000  Level Fort Worth Center
Wed 01:42:32 PM 32.8786 -91.6925 222° Southwest 503 579 40,000  Level Fort Worth Center
Wed 01:43:32 PM 32.7772 -91.8050 223° Southwest 503 579 40,000  Level Fort Worth Center
Wed 01:45:27 PM 32.5911 -92.0089 223° Southwest 506 582 40,000  Level Houston Center
Wed 01:46:29 PM 32.4761 -92.1294 222° Southwest 503 579 40,000  Level Houston Center
Wed 01:47:31 PM 32.3758 -92.2408 223° Southwest 498 573 40,000  Level Houston Center
Wed 01:48:33 PM 32.2797 -92.3597 226° Southwest 501 577 40,000  Level Houston Center
Wed 01:49:35 PM 32.1842 -92.4775 226° Southwest 500 575 40,000  Level Houston Center
Wed 01:50:37 PM 32.0894 -92.5981 227° Southwest 502 578 40,000  Level Houston Center
Wed 01:51:38 PM 31.9936 -92.7142 226° Southwest 499 574 40,000  Level Houston Center
Wed 01:52:40 PM 31.8783 -92.8528 226° Southwest 496 571 40,000  Level Houston Center
Wed 01:53:42 PM 31.7822 -92.9700 226° Southwest 497 572 40,000  Level Houston Center
Wed 01:54:44 PM 31.6861 -93.0875 226° Southwest 499 574 40,000  Level Houston Center
Wed 01:55:46 PM 31.5928 -93.2056 227° Southwest 496 571 40,000  Level Houston Center
Wed 01:56:48 PM 31.4906 -93.3283 226° Southwest 498 573 40,000  Level Houston Center
Wed 01:57:50 PM 31.3956 -93.4436 226° Southwest 495 570 40,000  Level Houston Center
Wed 01:58:52 PM 31.3008 -93.5575 226° Southwest 492 566 40,000 -1,403 Level Houston Center
Wed 01:59:54 PM 31.1922 -93.6875 226° Southwest 491 565 37,100 -2,613 Descending Houston Center
Wed 02:00:56 PM 31.0986 -93.7994 226° Southwest 486 559 34,600 -2,613 Descending Houston Center
Wed 02:01:58 PM 30.9906 -93.9294 226° Southwest 494 568 31,700 -2,565 Descending Houston Center
Wed 02:03:00 PM 30.9064 -94.0294 226° Southwest 500 575 29,300 -2,710 Descending Houston Center
Wed 02:04:02 PM 30.7894 -94.1683 226° Southwest 503 579 26,100 -2,710 Descending Houston Center
Wed 02:05:04 PM 30.6975 -94.2775 226° Southwest 482 555 23,700 -2,385 Descending Houston Center
Wed 02:05:20 PM 30.6739 -94.3067 227° Southwest 450 518 23,000 -2,323 Descending Houston Center
Wed 02:06:06 PM 30.6131 -94.3775 225° Southwest 443 510 21,300 -2,541 Descending Houston Center
Wed 02:06:45 PM 30.5458 -94.4572 226° Southwest 445 512 19,400 -2,613 Descending Houston Center
Wed 02:07:08 PM 30.5258 -94.4808 225° Southwest 447 514 18,600 -2,951 Descending Houston Center
Wed 02:07:46 PM 30.4656 -94.5622 229° Southwest 434 499 16,400 -2,516 Descending Houston Center
Wed 02:08:10 PM 30.4414 -94.6019 235° Southwest 420 483 16,000 -1,452 Descending Houston Center
Wed 02:08:48 PM 30.3981 -94.6678 233° Southwest 374 430 14,900 -1,548 Descending Houston Center
Wed 02:09:12 PM 30.3781 -94.7000 234° Southwest 389 448 14,400 -1,377 Descending Houston Center
Wed 02:09:49 PM 30.3339 -94.7658 232° Southwest 383 441 13,500 -1,258 Descending Houston Center
Wed 02:10:14 PM 30.3153 -94.7964 235° Southwest 381 438 13,100 -448 Descending Houston Center
Wed 02:10:56 PM 30.2733 -94.8581 232° Southwest 296 341 13,000 -194 Descending Houston Center
Wed 02:11:16 PM 30.2644 -94.8758 240° Southwest 317 365 12,900 -1,636 Descending Houston Center
Wed 02:11:51 PM 30.2294 -94.9267 231° Southwest 288 331 11,500 -1,935 Descending Houston Center
Wed 02:12:18 PM 30.2167 -94.9494 237° Southwest 291 335 10,900 -1,607 Descending Houston Center
Wed 02:12:47 PM 30.1856 -94.9950 232° Southwest 287 330 10,000 -871 Descending Houston Center
Wed 02:13:20 PM 30.1697 -95.0225 236° Southwest 286 329 10,000  Level Houston Center
Wed 02:13:54 PM 30.1281 -95.0747 227° Southwest 277 319 10,000  Level Houston Center
Wed 02:14:22 PM 30.0983 -95.0864 199° South 285 328 10,000  Level Houston Center
Wed 02:14:55 PM 30.0553 -95.1053 201° Southwest 280 322 10,000  Level Houston Center
Wed 02:15:24 PM 30.0261 -95.1183 201° Southwest 281 323 10,000  Level Houston Center
Wed 02:16:02 PM 29.9706 -95.1422 200° South 289 333 10,000  Level Houston Center
Wed 02:16:27 PM 29.9506 -95.1511 201° Southwest 288 331 10,000 -581 Level Houston Center
Wed 02:17:04 PM 29.8956 -95.1731 199° South 285 328 9,400 -968 Descending Houston Center
Wed 02:17:29 PM 29.8756 -95.1828 203° Southwest 287 330 9,000 -2,727 Descending Houston Center
Wed 02:17:59 PM 29.8311 -95.2028 201° Southwest 271 312 6,900 -2,806 Descending Houston Center
Wed 02:18:31 PM 29.8056 -95.2142 201° Southwest 276 318 6,100 -2,597 Descending Houston Center
Wed 02:19:06 PM 29.7878 -95.2803 253° West 285 328 4,000 -3,000 Descending Houston Center
Wed 02:19:33 PM 29.7919 -95.3150 278° West 282 325 3,000 -1,935 Descending Houston Center
Wed 02:20:08 PM 29.7675 -95.3550 235° Southwest 276 318 2,000 -968 Descending Houston Center
Wed 02:20:35 PM 29.7422 -95.3578 185° South 262 302 2,000  Level Houston Center
Wed 02:21:03 PM 29.7125 -95.3519 170° South 213 245 2,000 -387 Level Houston Center
Wed 02:21:37 PM 29.6925 -95.3347 143° Southeast 217 250 1,600 -1,180 Descending Houston Center
Wed 02:22:04 PM 29.6756 -95.3156 135° Southeast 151 174 800 -1,161 Descending Houston Center
Wed 02:22:39 PM 29.6628 -95.3000 133° Southeast 178 205 400 -367 Descending Houston Center
Wed 02:23:42 PM 29.6322 -95.2642 134° Southeast 163 188 200 -190 Descending Houston Center
Wed 02:25:00 PM 29.6454 -95.2789 316° Northwest  Level Estimated

Login

Don't have an account? Register now (free) for customized features, flight alerts, and more!